createdAt,value
2023-03-29T00:00:16.845Z,90.93
2023-03-29T00:01:35.975Z,90.83
2023-03-29T00:02:17.840Z,90.93
2023-03-29T00:03:17.082Z,90.93
2023-03-29T00:04:16.794Z,90.93
2023-03-29T00:05:16.767Z,90.83
2023-03-29T00:06:16.766Z,90.83
2023-03-29T00:07:16.768Z,90.83
2023-03-29T00:08:16.723Z,91.03
2023-03-29T00:09:16.709Z,91.14
2023-03-29T00:10:16.691Z,91.03
2023-03-29T00:11:16.680Z,90.93
2023-03-29T00:12:16.674Z,90.93
2023-03-29T00:13:16.666Z,90.83
2023-03-29T00:14:16.645Z,90.72
2023-03-29T00:15:16.640Z,90.72
2023-03-29T00:16:16.668Z,90.83
2023-03-29T00:17:16.616Z,90.83
2023-03-29T00:18:16.619Z,90.83
2023-03-29T00:19:16.572Z,90.72
2023-03-29T00:20:16.588Z,90.62
2023-03-29T00:21:16.549Z,90.52
2023-03-29T00:22:16.563Z,90.31
2023-03-29T00:23:16.563Z,90.41
2023-03-29T00:24:16.526Z,90.31
2023-03-29T00:25:16.497Z,90.31
2023-03-29T00:26:16.507Z,90.31
2023-03-29T00:27:16.495Z,90.20
2023-03-29T00:28:16.473Z,90.00
2023-03-29T00:29:16.466Z,89.89
2023-03-29T00:30:16.443Z,90.00
2023-03-29T00:31:16.437Z,90.10
2023-03-29T00:32:16.434Z,90.31
2023-03-29T00:33:16.407Z,90.31
2023-03-29T00:34:16.386Z,90.31
2023-03-29T00:35:16.398Z,90.20
2023-03-29T00:36:16.365Z,90.20
2023-03-29T00:37:16.358Z,90.20
2023-03-29T00:38:16.343Z,90.10
2023-03-29T00:39:16.316Z,90.20
2023-03-29T00:40:16.347Z,90.31
2023-03-29T00:41:16.307Z,90.31
2023-03-29T00:42:16.321Z,90.41
2023-03-29T00:43:16.303Z,90.52
2023-03-29T00:44:16.272Z,90.41
2023-03-29T00:45:16.244Z,90.41
2023-03-29T00:46:16.256Z,90.31
2023-03-29T00:47:16.240Z,90.20
2023-03-29T00:48:16.225Z,90.10
2023-03-29T00:49:16.198Z,90.10
2023-03-29T00:50:16.191Z,90.00
2023-03-29T00:51:16.179Z,89.79
2023-03-29T00:52:16.173Z,89.69
2023-03-29T00:53:16.171Z,89.58
2023-03-29T00:54:16.155Z,89.34
2023-03-29T00:55:16.115Z,89.44
2023-03-29T00:56:16.116Z,89.44
2023-03-29T00:57:16.118Z,89.44
2023-03-29T00:58:16.088Z,89.34
2023-03-29T00:59:16.115Z,89.34
2023-03-29T01:00:16.063Z,89.44
2023-03-29T01:01:16.040Z,89.23
2023-03-29T01:02:16.061Z,88.92
2023-03-29T01:03:16.091Z,88.82
2023-03-29T01:04:16.034Z,88.71
2023-03-29T01:05:15.993Z,88.71
2023-03-29T01:06:15.984Z,88.61
2023-03-29T01:07:16.018Z,88.71
2023-03-29T01:08:15.978Z,88.61
2023-03-29T01:09:15.942Z,88.61
2023-03-29T01:10:15.954Z,88.40
2023-03-29T01:11:15.916Z,88.51
2023-03-29T01:12:15.905Z,88.51
2023-03-29T01:13:15.908Z,88.61
2023-03-29T01:14:15.882Z,88.61
2023-03-29T01:15:15.879Z,88.71
2023-03-29T01:16:15.917Z,88.61
2023-03-29T01:17:15.846Z,88.30
2023-03-29T01:18:15.856Z,88.20
2023-03-29T01:19:15.808Z,88.30
2023-03-29T01:20:15.832Z,87.99
2023-03-29T01:21:15.792Z,87.78
2023-03-29T01:22:15.791Z,87.78
2023-03-29T01:23:15.789Z,87.78
2023-03-29T01:24:15.759Z,87.68
2023-03-29T01:25:15.751Z,87.68
2023-03-29T01:26:15.728Z,87.57
2023-03-29T01:27:15.743Z,87.47
2023-03-29T01:28:15.703Z,87.47
2023-03-29T01:29:15.707Z,87.57
2023-03-29T01:30:15.685Z,87.47
2023-03-29T01:31:15.684Z,87.57
2023-03-29T01:32:15.665Z,87.57
2023-03-29T01:33:15.662Z,87.57
2023-03-29T01:34:15.624Z,87.57
2023-03-29T01:35:15.613Z,87.37
2023-03-29T01:36:15.672Z,87.43
2023-03-29T01:37:15.597Z,87.47
2023-03-29T01:38:15.584Z,87.47
2023-03-29T01:39:15.570Z,87.43
2023-03-29T01:40:15.549Z,87.33
2023-03-29T01:41:15.530Z,87.02
2023-03-29T01:42:15.540Z,86.81
2023-03-29T01:43:15.508Z,86.91
2023-03-29T01:44:15.514Z,87.02
2023-03-29T01:45:15.505Z,86.71
2023-03-29T01:46:15.520Z,86.71
2023-03-29T01:47:15.478Z,86.60
2023-03-29T01:48:15.455Z,86.50
2023-03-29T01:49:15.452Z,86.50
2023-03-29T01:50:15.419Z,86.40
2023-03-29T01:51:15.409Z,86.29
2023-03-29T01:52:15.397Z,86.29
2023-03-29T01:53:15.379Z,86.19
2023-03-29T01:54:15.384Z,86.19
2023-03-29T01:55:15.349Z,86.40
2023-03-29T01:56:15.368Z,86.50
2023-03-29T01:57:15.354Z,86.50
2023-03-29T01:58:15.321Z,86.29
2023-03-29T01:59:15.294Z,86.40
2023-03-29T02:00:15.303Z,86.50
2023-03-29T02:01:15.298Z,86.71
2023-03-29T02:02:15.316Z,86.60
2023-03-29T02:03:15.356Z,86.50
2023-03-29T02:04:15.253Z,86.19
2023-03-29T02:05:15.233Z,86.19
2023-03-29T02:06:15.214Z,86.29
2023-03-29T02:07:15.204Z,86.29
2023-03-29T02:08:15.209Z,86.29
2023-03-29T02:09:15.183Z,86.19
2023-03-29T02:10:15.161Z,85.99
2023-03-29T02:11:15.159Z,85.88
2023-03-29T02:12:15.139Z,85.99
2023-03-29T02:13:15.134Z,86.09
2023-03-29T02:14:15.187Z,86.09
2023-03-29T02:15:15.097Z,86.19
2023-03-29T02:16:15.250Z,86.40
2023-03-29T02:17:15.078Z,86.09
2023-03-29T02:18:15.066Z,85.99
2023-03-29T02:19:15.277Z,86.09
2023-03-29T02:20:15.111Z,85.88
2023-03-29T02:21:15.017Z,85.68
2023-03-29T02:22:15.005Z,85.78
2023-03-29T02:23:14.989Z,85.78
2023-03-29T02:24:14.980Z,85.36
2023-03-29T02:25:14.986Z,84.70
2023-03-29T02:26:14.963Z,84.81
2023-03-29T02:27:14.944Z,85.02
2023-03-29T02:28:14.935Z,84.91
2023-03-29T02:29:14.918Z,85.02
2023-03-29T02:30:14.917Z,85.11
2023-03-29T02:31:14.936Z,85.32
2023-03-29T02:32:14.873Z,85.22
2023-03-29T02:33:14.870Z,85.22
2023-03-29T02:34:14.848Z,85.22
2023-03-29T02:35:14.840Z,85.32
2023-03-29T02:36:14.874Z,85.42
2023-03-29T02:37:14.816Z,85.11
2023-03-29T02:38:14.808Z,85.02
2023-03-29T02:39:14.790Z,85.02
2023-03-29T02:40:14.781Z,85.02
2023-03-29T02:41:14.783Z,85.22
2023-03-29T02:42:14.744Z,85.02
2023-03-29T02:43:14.735Z,84.91
2023-03-29T02:44:14.723Z,84.81
2023-03-29T02:45:14.716Z,84.50
2023-03-29T02:46:14.719Z,84.50
2023-03-29T02:47:14.702Z,84.19
2023-03-29T02:48:14.670Z,83.98
2023-03-29T02:49:14.661Z,84.19
2023-03-29T02:50:14.645Z,84.29
2023-03-29T02:51:14.640Z,84.15
2023-03-29T02:52:14.646Z,84.05
2023-03-29T02:53:14.616Z,84.08
2023-03-29T02:54:14.591Z,83.84
2023-03-29T02:55:14.585Z,83.53
2023-03-29T02:56:14.573Z,83.73
2023-03-29T02:57:14.589Z,83.73
2023-03-29T02:58:14.563Z,83.84
2023-03-29T02:59:14.594Z,83.94
2023-03-29T03:00:14.560Z,83.53
2023-03-29T03:01:14.511Z,83.53
2023-03-29T03:02:14.637Z,83.73
2023-03-29T03:03:14.588Z,83.63
2023-03-29T03:04:14.494Z,83.63
2023-03-29T03:05:14.462Z,83.22
2023-03-29T03:06:14.448Z,82.90
2023-03-29T03:07:14.448Z,82.90
2023-03-29T03:08:14.416Z,82.90
2023-03-29T03:09:14.420Z,82.90
2023-03-29T03:10:14.409Z,82.70
2023-03-29T03:11:14.384Z,82.80
2023-03-29T03:12:14.421Z,82.90
2023-03-29T03:13:14.374Z,82.90
2023-03-29T03:14:14.389Z,82.80
2023-03-29T03:15:14.334Z,83.01
2023-03-29T03:16:14.357Z,83.22
2023-03-29T03:17:14.313Z,83.22
2023-03-29T03:18:14.326Z,83.11
2023-03-29T03:19:14.285Z,82.80
2023-03-29T03:20:14.305Z,82.70
2023-03-29T03:21:14.254Z,82.66
2023-03-29T03:22:14.238Z,82.87
2023-03-29T03:23:14.248Z,82.97
2023-03-29T03:24:14.203Z,82.97
2023-03-29T03:25:14.221Z,83.07
2023-03-29T03:26:14.173Z,82.97
2023-03-29T03:27:14.168Z,82.97
2023-03-29T03:28:14.147Z,82.76
2023-03-29T03:29:14.148Z,82.87
2023-03-29T03:30:14.158Z,83.07
2023-03-29T03:31:14.175Z,82.76
2023-03-29T03:32:14.104Z,82.87
2023-03-29T03:33:14.100Z,82.76
2023-03-29T03:34:14.081Z,82.87
2023-03-29T03:35:14.118Z,82.76
2023-03-29T03:36:14.164Z,82.76
2023-03-29T03:37:14.039Z,82.76
2023-03-29T03:38:14.022Z,82.66
2023-03-29T03:39:14.018Z,82.97
2023-03-29T03:40:14.016Z,82.66
2023-03-29T03:41:14.007Z,82.97
2023-03-29T03:42:13.968Z,83.28
2023-03-29T03:43:13.978Z,82.97
2023-03-29T03:44:13.948Z,82.87
2023-03-29T03:45:13.939Z,82.76
2023-03-29T03:46:13.968Z,82.76
2023-03-29T03:47:13.905Z,82.87
2023-03-29T03:48:13.899Z,82.97
2023-03-29T03:49:13.896Z,82.76
2023-03-29T03:50:13.876Z,82.87
2023-03-29T03:51:13.851Z,82.76
2023-03-29T03:52:13.853Z,82.87
2023-03-29T03:53:13.836Z,82.83
2023-03-29T03:54:13.835Z,83.14
2023-03-29T03:55:13.804Z,82.93
2023-03-29T03:56:13.795Z,82.93
2023-03-29T03:57:13.861Z,82.93
2023-03-29T03:58:13.765Z,83.34
2023-03-29T03:59:13.954Z,83.34
2023-03-29T04:00:13.755Z,83.76
2023-03-29T04:01:13.731Z,84.07
2023-03-29T04:02:13.737Z,84.17
2023-03-29T04:03:13.851Z,84.59
2023-03-29T04:04:13.747Z,84.38
2023-03-29T04:05:13.704Z,84.38
2023-03-29T04:06:13.663Z,84.48
2023-03-29T04:07:13.649Z,84.79
2023-03-29T04:08:13.641Z,84.89
2023-03-29T04:09:13.626Z,84.79
2023-03-29T04:10:13.616Z,85.10
2023-03-29T04:11:13.609Z,85.45
2023-03-29T04:12:13.594Z,85.55
2023-03-29T04:13:13.575Z,85.62
2023-03-29T04:14:13.569Z,86.07
2023-03-29T04:15:13.542Z,86.13
2023-03-29T04:16:13.565Z,86.44
2023-03-29T04:17:13.524Z,86.59
2023-03-29T04:18:13.571Z,86.79
2023-03-29T04:19:13.498Z,87.10
2023-03-29T04:20:13.505Z,87.41
2023-03-29T04:21:13.502Z,87.52
2023-03-29T04:22:13.467Z,87.73
2023-03-29T04:23:13.468Z,87.93
2023-03-29T04:24:13.430Z,88.04
2023-03-29T04:25:13.412Z,88.14
2023-03-29T04:26:13.403Z,88.14
2023-03-29T04:27:13.429Z,88.24
2023-03-29T04:28:13.384Z,88.34
2023-03-29T04:29:13.380Z,88.45
2023-03-29T04:30:13.367Z,88.55
2023-03-29T04:31:13.386Z,88.65
2023-03-29T04:32:13.330Z,88.55
2023-03-29T04:33:13.318Z,88.55
2023-03-29T04:34:13.309Z,88.86
2023-03-29T04:35:13.291Z,88.96
2023-03-29T04:36:13.342Z,89.07
2023-03-29T04:37:13.290Z,89.07
2023-03-29T04:38:13.300Z,89.17
2023-03-29T04:39:13.240Z,89.28
2023-03-29T04:40:13.239Z,89.38
2023-03-29T04:41:13.244Z,89.28
2023-03-29T04:42:13.203Z,89.38
2023-03-29T04:43:13.194Z,89.48
2023-03-29T04:44:13.209Z,89.48
2023-03-29T04:45:13.193Z,89.48
2023-03-29T04:46:13.258Z,89.38
2023-03-29T04:47:13.179Z,89.38
2023-03-29T04:48:13.128Z,89.38
2023-03-29T04:49:13.119Z,89.48
2023-03-29T04:50:13.117Z,89.48
2023-03-29T04:51:13.090Z,89.38
2023-03-29T04:52:13.104Z,89.17
2023-03-29T04:53:13.058Z,89.07
2023-03-29T04:54:13.054Z,88.96
2023-03-29T04:55:13.036Z,88.86
2023-03-29T04:56:13.147Z,88.45
2023-03-29T04:57:13.068Z,88.24
2023-03-29T04:58:13.008Z,88.14
2023-03-29T04:59:12.990Z,87.99
2023-03-29T05:00:12.982Z,88.10
2023-03-29T05:01:12.971Z,88.10
2023-03-29T05:02:13.044Z,88.31
2023-03-29T05:03:12.949Z,88.41
2023-03-29T05:04:13.029Z,88.51
2023-03-29T05:05:12.926Z,88.61
2023-03-29T05:06:12.938Z,88.82
2023-03-29T05:07:12.895Z,89.03
2023-03-29T05:08:12.871Z,89.23
2023-03-29T05:09:12.886Z,89.23
2023-03-29T05:10:12.967Z,89.44
2023-03-29T05:11:12.832Z,89.65
2023-03-29T05:12:12.817Z,89.75
2023-03-29T05:13:12.839Z,89.86
2023-03-29T05:14:12.813Z,90.06
2023-03-29T05:15:12.779Z,90.26
2023-03-29T05:16:12.791Z,90.47
2023-03-29T05:17:12.800Z,90.37
2023-03-29T05:18:12.743Z,90.37
2023-03-29T05:19:12.727Z,90.47
2023-03-29T05:20:12.719Z,90.68
2023-03-29T05:21:12.717Z,90.89
2023-03-29T05:22:12.698Z,90.89
2023-03-29T05:23:12.700Z,91.20
2023-03-29T05:24:12.674Z,91.30
2023-03-29T05:25:12.645Z,91.61
2023-03-29T05:26:12.647Z,91.71
2023-03-29T05:27:12.629Z,92.02
2023-03-29T05:28:12.720Z,92.23
2023-03-29T05:29:12.611Z,92.44
2023-03-29T05:30:12.599Z,92.85
2023-03-29T05:31:13.656Z,93.16
2023-03-29T05:32:12.603Z,93.62
2023-03-29T05:33:12.600Z,93.93
2023-03-29T05:34:12.578Z,94.34
2023-03-29T05:35:12.555Z,94.65
2023-03-29T05:36:12.516Z,94.96
2023-03-29T05:37:12.490Z,95.37
2023-03-29T05:38:12.484Z,95.68
2023-03-29T05:39:12.504Z,95.89
2023-03-29T05:40:12.478Z,96.30
2023-03-29T05:41:12.459Z,96.51
2023-03-29T05:42:12.453Z,96.82
2023-03-29T05:43:12.429Z,97.02
2023-03-29T05:44:12.432Z,97.33
2023-03-29T05:45:12.403Z,97.64
2023-03-29T05:46:12.401Z,97.96
2023-03-29T05:47:12.369Z,98.06
2023-03-29T05:48:12.378Z,98.16
2023-03-29T05:49:12.332Z,98.37
2023-03-29T05:50:12.350Z,98.47
2023-03-29T05:51:12.318Z,98.57
2023-03-29T05:52:12.297Z,98.68
2023-03-29T05:53:12.292Z,98.78
2023-03-29T05:54:12.272Z,98.88
2023-03-29T05:55:12.290Z,98.99
2023-03-29T05:56:12.262Z,99.09
2023-03-29T05:57:12.393Z,99.19
2023-03-29T05:58:12.256Z,99.30
2023-03-29T05:59:12.218Z,99.40
2023-03-29T06:00:12.202Z,99.40
2023-03-29T06:01:12.190Z,99.40
2023-03-29T06:02:12.221Z,99.51
2023-03-29T06:03:17.924Z,99.51
2023-03-29T06:04:13.252Z,99.61
2023-03-29T06:05:12.132Z,99.71
2023-03-29T06:06:12.124Z,99.71
2023-03-29T06:07:12.111Z,99.71
2023-03-29T06:08:12.089Z,99.82
2023-03-29T06:09:12.109Z,99.82
2023-03-29T06:10:12.092Z,99.71
2023-03-29T06:11:12.120Z,99.82
2023-03-29T06:12:12.041Z,99.82
2023-03-29T06:13:12.034Z,99.82
2023-03-29T06:14:12.018Z,99.92
2023-03-29T06:15:12.003Z,99.92
2023-03-29T06:16:11.987Z,99.92
2023-03-29T06:17:12.025Z,99.92
2023-03-29T06:18:11.989Z,99.92
2023-03-29T06:19:11.952Z,99.92
2023-03-29T06:20:11.960Z,99.82
2023-03-29T06:21:12.605Z,99.82
2023-03-29T06:22:13.728Z,99.82
2023-03-29T06:23:11.919Z,99.82
2023-03-29T06:24:11.883Z,99.66
2023-03-29T06:25:11.877Z,99.66
2023-03-29T06:26:11.864Z,99.56
2023-03-29T06:27:11.870Z,99.46
2023-03-29T06:28:11.858Z,99.25
2023-03-29T06:29:11.832Z,99.15
2023-03-29T06:30:11.826Z,99.05
2023-03-29T06:31:11.801Z,98.94
2023-03-29T06:32:11.776Z,98.84
2023-03-29T06:33:11.780Z,98.74
2023-03-29T06:34:11.779Z,98.74
2023-03-29T06:35:11.762Z,98.63
2023-03-29T06:36:11.771Z,98.53
2023-03-29T06:37:11.742Z,98.32
2023-03-29T06:38:11.712Z,98.22
2023-03-29T06:39:11.700Z,98.07
2023-03-29T06:40:11.873Z,97.66
2023-03-29T06:41:11.669Z,97.55
2023-03-29T06:42:20.687Z,97.45
2023-03-29T06:43:12.959Z,97.25
2023-03-29T06:44:11.624Z,97.04
2023-03-29T06:45:11.648Z,96.83
2023-03-29T06:46:11.755Z,96.62
2023-03-29T06:47:11.604Z,96.42
2023-03-29T06:48:11.611Z,96.31
2023-03-29T06:49:11.583Z,96.31
2023-03-29T06:50:11.585Z,96.17
2023-03-29T06:51:11.556Z,96.06
2023-03-29T06:52:11.528Z,96.06
2023-03-29T06:53:11.529Z,95.96
2023-03-29T06:54:11.491Z,95.76
2023-03-29T06:55:11.493Z,95.55
2023-03-29T06:56:11.498Z,95.34
2023-03-29T06:57:11.490Z,95.14
2023-03-29T06:58:11.443Z,95.03
2023-03-29T06:59:11.437Z,94.82
2023-03-29T07:00:11.428Z,94.52
2023-03-29T07:01:11.457Z,94.31
2023-03-29T07:02:11.447Z,94.37
2023-03-29T07:03:11.391Z,94.27
2023-03-29T07:04:11.412Z,93.96
2023-03-29T07:05:11.404Z,93.75
2023-03-29T07:06:11.339Z,93.54
2023-03-29T07:07:11.350Z,93.44
2023-03-29T07:08:11.351Z,93.44
2023-03-29T07:09:11.309Z,93.34
2023-03-29T07:10:11.302Z,93.13
2023-03-29T07:11:11.286Z,93.13
2023-03-29T07:12:11.298Z,93.34
2023-03-29T07:13:11.248Z,93.24
2023-03-29T07:14:11.238Z,93.03
2023-03-29T07:15:11.238Z,92.82
2023-03-29T07:16:11.242Z,92.68
2023-03-29T07:17:11.202Z,92.47
2023-03-29T07:18:11.215Z,92.37
2023-03-29T07:19:11.191Z,92.27
2023-03-29T07:20:11.185Z,92.27
2023-03-29T07:21:11.152Z,92.27
2023-03-29T07:22:11.361Z,91.96
2023-03-29T07:23:11.123Z,91.85
2023-03-29T07:24:11.142Z,91.85
2023-03-29T07:25:11.112Z,91.64
2023-03-29T07:26:11.080Z,91.44
2023-03-29T07:27:11.087Z,91.44
2023-03-29T07:28:11.071Z,91.50
2023-03-29T07:29:11.079Z,91.40
2023-03-29T07:30:11.318Z,91.19
2023-03-29T07:31:11.317Z,91.09
2023-03-29T07:32:11.041Z,90.99
2023-03-29T07:33:11.113Z,90.99
2023-03-29T07:34:10.990Z,90.88
2023-03-29T07:35:10.971Z,90.88
2023-03-29T07:36:11.049Z,90.57
2023-03-29T07:37:10.953Z,90.37
2023-03-29T07:38:10.927Z,90.16
2023-03-29T07:39:10.934Z,90.01
2023-03-29T07:40:10.921Z,90.22
2023-03-29T07:41:10.888Z,90.33
2023-03-29T07:42:10.875Z,90.12
2023-03-29T07:43:10.875Z,89.61
2023-03-29T07:44:10.855Z,89.61
2023-03-29T07:45:10.860Z,89.50
2023-03-29T07:46:10.877Z,89.29
2023-03-29T07:47:10.809Z,89.29
2023-03-29T07:48:10.838Z,89.29
2023-03-29T07:49:10.813Z,89.19
2023-03-29T07:50:10.768Z,88.43
2023-03-29T07:51:10.780Z,88.64
2023-03-29T07:52:10.766Z,88.84
2023-03-29T07:53:10.735Z,88.84
2023-03-29T07:54:10.718Z,88.64
2023-03-29T07:55:10.722Z,88.64
2023-03-29T07:56:10.702Z,88.53
2023-03-29T07:57:10.712Z,88.23
2023-03-29T07:58:10.682Z,88.33
2023-03-29T07:59:10.665Z,88.23
2023-03-29T08:00:10.654Z,88.12
2023-03-29T08:01:12.861Z,87.71
2023-03-29T08:02:10.610Z,87.71
2023-03-29T08:03:10.733Z,87.71
2023-03-29T08:04:10.715Z,87.77
2023-03-29T08:05:10.674Z,87.57
2023-03-29T08:06:10.569Z,87.57
2023-03-29T08:07:10.575Z,87.46
2023-03-29T08:08:10.538Z,87.36
2023-03-29T08:09:10.527Z,87.46
2023-03-29T08:10:10.536Z,86.95
2023-03-29T08:11:10.504Z,86.29
2023-03-29T08:12:10.505Z,86.19
2023-03-29T08:13:10.509Z,86.19
2023-03-29T08:14:10.460Z,86.60
2023-03-29T08:15:10.449Z,86.50
2023-03-29T08:16:10.454Z,85.57
2023-03-29T08:17:10.465Z,84.44
2023-03-29T08:18:10.490Z,84.50
2023-03-29T08:19:10.405Z,84.91
2023-03-29T08:20:10.416Z,84.91
2023-03-29T08:21:10.372Z,84.61
2023-03-29T08:22:10.405Z,84.81
2023-03-29T08:23:10.383Z,84.91
2023-03-29T08:24:10.350Z,84.50
2023-03-29T08:25:10.329Z,84.30
2023-03-29T08:26:10.343Z,84.26
2023-03-29T08:27:10.300Z,84.47
2023-03-29T08:28:10.279Z,83.85
2023-03-29T08:29:10.585Z,83.64
2023-03-29T08:30:10.292Z,82.82
2023-03-29T08:31:10.318Z,82.82
2023-03-29T08:32:10.248Z,83.23
2023-03-29T08:33:10.273Z,83.33
2023-03-29T08:34:10.212Z,83.03
2023-03-29T08:35:10.217Z,82.78
2023-03-29T08:36:10.262Z,82.89
2023-03-29T08:37:10.175Z,82.17
2023-03-29T08:38:10.166Z,82.06
2023-03-29T08:39:10.155Z,82.37
2023-03-29T08:40:10.155Z,82.37
2023-03-29T08:41:10.131Z,81.86
2023-03-29T08:42:10.103Z,82.06
2023-03-29T08:43:10.102Z,82.27
2023-03-29T08:44:10.084Z,82.57
2023-03-29T08:45:10.124Z,82.47
2023-03-29T08:46:10.104Z,83.50
2023-03-29T08:47:10.049Z,83.91
2023-03-29T08:48:10.038Z,84.12
2023-03-29T08:49:10.023Z,84.74
2023-03-29T08:50:09.999Z,84.74
2023-03-29T08:51:10.354Z,84.53
2023-03-29T08:52:10.119Z,84.42
2023-03-29T08:53:09.987Z,84.53
2023-03-29T08:54:09.954Z,84.53
2023-03-29T08:55:09.946Z,84.84
2023-03-29T08:56:09.935Z,84.53
2023-03-29T08:57:09.966Z,84.53
2023-03-29T08:58:09.901Z,84.01
2023-03-29T08:59:09.887Z,84.01
2023-03-29T09:00:09.876Z,83.81
2023-03-29T09:01:09.879Z,83.19
2023-03-29T09:02:09.913Z,83.09
2023-03-29T09:03:09.904Z,82.95
2023-03-29T09:04:09.947Z,82.84
2023-03-29T09:05:09.822Z,82.84
2023-03-29T09:06:09.817Z,82.64
2023-03-29T09:07:09.787Z,82.23
2023-03-29T09:08:09.773Z,82.54
2023-03-29T09:09:09.760Z,82.91
2023-03-29T09:10:09.746Z,83.01
2023-03-29T09:11:09.744Z,82.70
2023-03-29T09:12:09.803Z,82.60
2023-03-29T09:13:09.764Z,82.60
2023-03-29T09:14:09.686Z,83.22
2023-03-29T09:15:09.675Z,83.22
2023-03-29T09:16:09.696Z,83.01
2023-03-29T09:17:09.663Z,83.53
2023-03-29T09:18:09.846Z,83.83
2023-03-29T09:19:09.628Z,83.22
2023-03-29T09:20:09.617Z,83.73
2023-03-29T09:21:09.607Z,83.90
2023-03-29T09:22:09.605Z,84.20
2023-03-29T09:23:09.597Z,83.90
2023-03-29T09:24:09.549Z,84.20
2023-03-29T09:25:09.545Z,83.59
2023-03-29T09:26:09.535Z,83.69
2023-03-29T09:27:09.527Z,83.59
2023-03-29T09:28:09.502Z,83.59
2023-03-29T09:29:09.727Z,83.69
2023-03-29T09:30:10.374Z,83.25
2023-03-29T09:31:09.497Z,82.93
2023-03-29T09:32:09.467Z,83.14
2023-03-29T09:33:09.467Z,82.73
2023-03-29T09:34:09.467Z,82.32
2023-03-29T09:35:09.428Z,83.20
2023-03-29T09:36:09.420Z,83.31
2023-03-29T09:37:09.389Z,83.31
2023-03-29T09:38:09.387Z,82.59
2023-03-29T09:39:09.405Z,82.08
2023-03-29T09:40:09.361Z,81.67
2023-03-29T09:41:09.337Z,81.63
2023-03-29T09:42:09.393Z,81.63
2023-03-29T09:43:09.315Z,81.73
2023-03-29T09:44:12.755Z,81.12
2023-03-29T09:45:10.293Z,81.01
2023-03-29T09:46:09.351Z,81.01
2023-03-29T09:47:09.276Z,81.52
2023-03-29T09:48:09.316Z,81.22
2023-03-29T09:49:09.279Z,81.94
2023-03-29T09:50:19.605Z,82.55
2023-03-29T09:51:10.214Z,81.84
2023-03-29T09:52:09.205Z,81.29
2023-03-29T09:53:09.186Z,80.77
2023-03-29T09:54:09.240Z,80.77
2023-03-29T09:55:09.180Z,81.08
2023-03-29T09:56:09.162Z,81.29
2023-03-29T09:57:09.163Z,81.08
2023-03-29T09:58:09.116Z,80.74
2023-03-29T09:59:09.111Z,81.10
2023-03-29T10:00:09.139Z,80.08
2023-03-29T10:01:09.140Z,80.08
2023-03-29T10:02:09.080Z,78.75
2023-03-29T10:03:10.616Z,79.27
2023-03-29T10:04:09.082Z,80.19
2023-03-29T10:05:09.099Z,79.16
2023-03-29T10:06:09.157Z,79.27
2023-03-29T10:07:09.085Z,79.47
2023-03-29T10:08:09.114Z,79.71
2023-03-29T10:09:09.030Z,79.78
2023-03-29T10:10:08.996Z,79.57
2023-03-29T10:11:08.949Z,79.47
2023-03-29T10:12:08.940Z,79.57
2023-03-29T10:13:08.923Z,79.68
2023-03-29T10:14:08.939Z,79.27
2023-03-29T10:15:13.903Z,79.78
2023-03-29T10:16:09.985Z,79.84
2023-03-29T10:17:08.884Z,78.11
2023-03-29T10:18:08.896Z,78.20
2023-03-29T10:19:08.853Z,78.61
2023-03-29T10:20:10.174Z,77.76
2023-03-29T10:21:08.834Z,77.15
2023-03-29T10:22:08.833Z,77.15
2023-03-29T10:23:08.813Z,76.53
2023-03-29T10:24:08.779Z,77.25
2023-03-29T10:25:08.780Z,77.72
2023-03-29T10:26:08.758Z,76.60
2023-03-29T10:27:08.772Z,75.78
2023-03-29T10:28:08.749Z,76.19
2023-03-29T10:29:08.717Z,75.99
2023-03-29T10:30:08.706Z,75.58
2023-03-29T10:31:08.716Z,75.89
2023-03-29T10:32:08.748Z,75.58
2023-03-29T10:33:08.701Z,75.48
2023-03-29T10:34:08.669Z,74.76
2023-03-29T10:35:08.685Z,74.97
2023-03-29T10:36:08.648Z,74.97
2023-03-29T10:37:08.622Z,75.58
2023-03-29T10:38:08.638Z,75.68
2023-03-29T10:39:08.605Z,75.54
2023-03-29T10:40:08.594Z,76.16
2023-03-29T10:41:08.588Z,74.83
2023-03-29T10:42:08.579Z,74.52
2023-03-29T10:43:08.543Z,74.52
2023-03-29T10:44:08.546Z,74.59
2023-03-29T10:45:08.512Z,74.18
2023-03-29T10:46:08.540Z,74.18
2023-03-29T10:47:08.483Z,74.08
2023-03-29T10:48:08.520Z,73.74
2023-03-29T10:49:08.464Z,74.66
2023-03-29T10:50:08.450Z,74.11
2023-03-29T10:51:08.450Z,73.71
2023-03-29T10:52:08.430Z,72.86
2023-03-29T10:53:08.426Z,72.45
2023-03-29T10:54:08.424Z,72.24
2023-03-29T10:55:08.391Z,72.65
2023-03-29T10:56:08.371Z,73.16
2023-03-29T10:57:08.501Z,72.45
2023-03-29T10:58:08.342Z,72.34
2023-03-29T10:59:08.363Z,72.75
2023-03-29T11:00:08.328Z,73.84
2023-03-29T11:01:08.345Z,72.82
2023-03-29T11:02:08.298Z,72.92
2023-03-29T11:03:08.351Z,72.52
2023-03-29T11:04:08.840Z,72.78
2023-03-29T11:05:08.271Z,72.38
2023-03-29T11:06:08.271Z,72.48
2023-03-29T11:07:08.229Z,71.77
2023-03-29T11:08:08.221Z,71.36
2023-03-29T11:09:08.207Z,70.86
2023-03-29T11:10:08.205Z,70.99
2023-03-29T11:11:08.245Z,72.21
2023-03-29T11:12:15.458Z,71.91
2023-03-29T11:13:09.158Z,72.72
2023-03-29T11:14:08.142Z,72.21
2023-03-29T11:15:08.168Z,72.11
2023-03-29T11:16:08.204Z,71.91
2023-03-29T11:17:08.137Z,71.19
2023-03-29T11:18:08.121Z,71.30
2023-03-29T11:19:08.149Z,72.58
2023-03-29T11:20:08.058Z,72.17
2023-03-29T11:21:10.658Z,72.96
2023-03-29T11:22:08.071Z,72.04
2023-03-29T11:23:08.085Z,71.40
2023-03-29T11:24:08.013Z,70.89
2023-03-29T11:25:08.022Z,70.07
2023-03-29T11:26:07.998Z,69.26
2023-03-29T11:27:07.983Z,69.97
2023-03-29T11:28:07.981Z,69.57
2023-03-29T11:29:07.953Z,69.36
2023-03-29T11:30:07.952Z,69.77
2023-03-29T11:31:08.010Z,69.46
2023-03-29T11:32:07.925Z,69.19
2023-03-29T11:33:07.913Z,70.21
2023-03-29T11:34:07.901Z,69.87
2023-03-29T11:35:07.897Z,69.16
2023-03-29T11:36:07.890Z,69.94
2023-03-29T11:37:07.858Z,69.02
2023-03-29T11:38:07.838Z,68.92
2023-03-29T11:39:07.825Z,68.59
2023-03-29T11:40:07.861Z,69.06
2023-03-29T11:41:07.826Z,68.35
2023-03-29T11:42:07.799Z,67.71
2023-03-29T11:43:07.777Z,67.61
2023-03-29T11:44:07.772Z,68.12
2023-03-29T11:45:07.776Z,67.61
2023-03-29T11:46:07.822Z,66.77
2023-03-29T11:47:07.734Z,66.66
2023-03-29T11:48:07.819Z,67.98
2023-03-29T11:49:07.703Z,69.17
2023-03-29T11:50:07.809Z,66.23
2023-03-29T11:51:07.675Z,66.30
2023-03-29T11:52:07.673Z,66.19
2023-03-29T11:53:07.642Z,66.09
2023-03-29T11:54:07.635Z,65.69
2023-03-29T11:55:07.646Z,64.70
2023-03-29T11:56:07.618Z,65.75
2023-03-29T11:57:07.632Z,66.36
2023-03-29T11:58:07.586Z,66.46
2023-03-29T11:59:07.604Z,66.69
2023-03-29T12:00:07.581Z,67.30
2023-03-29T12:01:07.548Z,68.01
2023-03-29T12:02:07.619Z,67.17
2023-03-29T12:03:07.586Z,66.97
2023-03-29T12:04:07.566Z,67.07
2023-03-29T12:05:07.509Z,66.83
2023-03-29T12:06:07.488Z,66.23
2023-03-29T12:07:07.481Z,66.74
2023-03-29T12:08:07.460Z,67.51
2023-03-29T12:09:07.436Z,67.92
2023-03-29T12:10:07.435Z,68.49
2023-03-29T12:11:07.414Z,66.16
2023-03-29T12:12:07.387Z,65.86
2023-03-29T12:13:07.404Z,65.32
2023-03-29T12:14:07.367Z,65.83
2023-03-29T12:15:07.374Z,64.51
2023-03-29T12:16:07.359Z,65.05
2023-03-29T12:17:07.338Z,65.05
2023-03-29T12:18:07.358Z,65.56
2023-03-29T12:19:07.334Z,66.27
2023-03-29T12:20:07.306Z,65.79
2023-03-29T12:21:07.359Z,65.89
2023-03-29T12:22:07.263Z,66.06
2023-03-29T12:23:07.262Z,65.25
2023-03-29T12:24:07.262Z,65.76
2023-03-29T12:25:07.702Z,65.36
2023-03-29T12:26:07.231Z,65.36
2023-03-29T12:27:07.196Z,66.19
2023-03-29T12:28:07.186Z,66.09
2023-03-29T12:29:07.174Z,65.69
2023-03-29T12:30:07.179Z,65.69
2023-03-29T12:31:07.209Z,66.33
2023-03-29T12:32:07.212Z,66.94
2023-03-29T12:33:07.178Z,66.23
2023-03-29T12:34:07.122Z,67.14
2023-03-29T12:35:07.096Z,67.17
2023-03-29T12:36:07.161Z,66.86
2023-03-29T12:37:07.092Z,67.27
2023-03-29T12:38:07.048Z,68.19
2023-03-29T12:39:07.034Z,67.58
2023-03-29T12:40:07.027Z,67.78
2023-03-29T12:41:07.018Z,67.98
2023-03-29T12:42:07.016Z,67.98
2023-03-29T12:43:06.983Z,68.49
2023-03-29T12:44:08.984Z,68.49
2023-03-29T12:45:06.956Z,68.08
2023-03-29T12:46:07.026Z,68.22
2023-03-29T12:47:06.938Z,68.73
2023-03-29T12:48:06.978Z,68.73
2023-03-29T12:49:06.915Z,69.34
2023-03-29T12:50:06.898Z,69.23
2023-03-29T12:51:06.877Z,69.64
2023-03-29T12:52:06.881Z,69.98